sensor_id;sensor_type;location;lat;lon;timestamp;P1;durP1;ratioP1;P2;durP2;ratioP2
55292;SDS011;41157;53.560;10.098;2024-01-10T00:02:24;26.73;;;12.23;;
55292;SDS011;41157;53.560;10.098;2024-01-10T00:04:51;22.47;;;11.43;;
55292;SDS011;41157;53.560;10.098;2024-01-10T00:07:18;21.13;;;11.07;;
55292;SDS011;41157;53.560;10.098;2024-01-10T00:09:45;24.40;;;11.97;;
55292;SDS011;41157;53.560;10.098;2024-01-10T00:12:12;27.77;;;11.77;;
55292;SDS011;41157;53.560;10.098;2024-01-10T00:14:40;21.67;;;11.80;;
55292;SDS011;41157;53.560;10.098;2024-01-10T00:17:07;22.43;;;11.47;;
55292;SDS011;41157;53.560;10.098;2024-01-10T00:19:34;22.77;;;12.43;;
55292;SDS011;41157;53.560;10.098;2024-01-10T00:22:01;29.33;;;11.63;;
55292;SDS011;41157;53.560;10.098;2024-01-10T00:24:28;26.40;;;11.37;;
55292;SDS011;41157;53.560;10.098;2024-01-10T00:26:55;30.93;;;12.20;;
55292;SDS011;41157;53.560;10.098;2024-01-10T00:29:22;26.83;;;12.20;;
55292;SDS011;41157;53.560;10.098;2024-01-10T00:31:51;19.80;;;10.57;;
55292;SDS011;41157;53.560;10.098;2024-01-10T00:34:18;26.07;;;12.63;;
55292;SDS011;41157;53.560;10.098;2024-01-10T00:36:45;22.40;;;11.73;;
55292;SDS011;41157;53.560;10.098;2024-01-10T00:39:12;25.47;;;11.77;;
55292;SDS011;41157;53.560;10.098;2024-01-10T00:41:40;23.67;;;12.10;;
55292;SDS011;41157;53.560;10.098;2024-01-10T00:44:07;24.57;;;12.53;;
55292;SDS011;41157;53.560;10.098;2024-01-10T00:46:34;23.47;;;11.73;;
55292;SDS011;41157;53.560;10.098;2024-01-10T00:49:03;29.67;;;12.57;;
55292;SDS011;41157;53.560;10.098;2024-01-10T00:51:30;22.50;;;11.30;;
55292;SDS011;41157;53.560;10.098;2024-01-10T00:53:57;31.73;;;12.07;;
55292;SDS011;41157;53.560;10.098;2024-01-10T00:56:24;22.47;;;11.90;;
55292;SDS011;41157;53.560;10.098;2024-01-10T00:58:51;26.37;;;12.57;;
55292;SDS011;41157;53.560;10.098;2024-01-10T01:01:22;24.27;;;12.80;;
55292;SDS011;41157;53.560;10.098;2024-01-10T01:03:49;21.20;;;11.80;;
55292;SDS011;41157;53.560;10.098;2024-01-10T01:06:18;26.13;;;11.93;;
55292;SDS011;41157;53.560;10.098;2024-01-10T01:08:45;28.13;;;12.87;;
55292;SDS011;41157;53.560;10.098;2024-01-10T01:11:12;23.43;;;12.20;;
55292;SDS011;41157;53.560;10.098;2024-01-10T01:13:40;24.80;;;12.87;;
55292;SDS011;41157;53.560;10.098;2024-01-10T01:16:07;27.23;;;13.07;;
55292;SDS011;41157;53.560;10.098;2024-01-10T01:18:34;25.60;;;12.77;;
55292;SDS011;41157;53.560;10.098;2024-01-10T01:21:01;27.67;;;12.57;;
55292;SDS011;41157;53.560;10.098;2024-01-10T01:23:29;26.57;;;12.60;;
55292;SDS011;41157;53.560;10.098;2024-01-10T01:25:56;31.20;;;13.40;;
55292;SDS011;41157;53.560;10.098;2024-01-10T01:28:23;21.13;;;12.10;;
55292;SDS011;41157;53.560;10.098;2024-01-10T01:30:50;26.33;;;12.50;;
55292;SDS011;41157;53.560;10.098;2024-01-10T01:33:17;25.97;;;12.10;;
55292;SDS011;41157;53.560;10.098;2024-01-10T01:35:44;27.77;;;13.07;;
55292;SDS011;41157;53.560;10.098;2024-01-10T01:38:11;32.67;;;13.87;;
55292;SDS011;41157;53.560;10.098;2024-01-10T01:40:40;34.67;;;14.33;;
55292;SDS011;41157;53.560;10.098;2024-01-10T01:43:17;25.80;;;12.57;;
55292;SDS011;41157;53.560;10.098;2024-01-10T01:45:44;27.00;;;13.37;;
55292;SDS011;41157;53.560;10.098;2024-01-10T01:48:12;26.40;;;13.33;;
55292;SDS011;41157;53.560;10.098;2024-01-10T01:50:39;29.43;;;12.87;;
55292;SDS011;41157;53.560;10.098;2024-01-10T01:53:06;26.70;;;12.60;;
55292;SDS011;41157;53.560;10.098;2024-01-10T01:55:33;29.90;;;13.40;;
55292;SDS011;41157;53.560;10.098;2024-01-10T01:58:02;26.50;;;12.87;;
55292;SDS011;41157;53.560;10.098;2024-01-10T02:00:29;25.17;;;12.53;;
55292;SDS011;41157;53.560;10.098;2024-01-10T02:02:56;27.23;;;12.17;;
55292;SDS011;41157;53.560;10.098;2024-01-10T02:05:23;28.67;;;12.83;;
55292;SDS011;41157;53.560;10.098;2024-01-10T02:07:51;26.57;;;12.33;;
55292;SDS011;41157;53.560;10.098;2024-01-10T02:10:19;26.73;;;11.53;;
55292;SDS011;41157;53.560;10.098;2024-01-10T02:12:46;16.60;;;8.97;;
55292;SDS011;41157;53.560;10.098;2024-01-10T02:15:14;22.37;;;10.57;;
55292;SDS011;41157;53.560;10.098;2024-01-10T02:17:41;17.43;;;9.33;;
55292;SDS011;41157;53.560;10.098;2024-01-10T02:20:09;23.20;;;11.00;;
55292;SDS011;41157;53.560;10.098;2024-01-10T02:22:36;23.73;;;10.50;;
55292;SDS011;41157;53.560;10.098;2024-01-10T02:25:05;22.47;;;11.07;;
55292;SDS011;41157;53.560;10.098;2024-01-10T02:27:33;23.43;;;10.03;;
55292;SDS011;41157;53.560;10.098;2024-01-10T02:30:00;18.27;;;9.37;;
55292;SDS011;41157;53.560;10.098;2024-01-10T02:32:28;22.37;;;10.70;;
55292;SDS011;41157;53.560;10.098;2024-01-10T02:34:55;20.93;;;10.13;;
55292;SDS011;41157;53.560;10.098;2024-01-10T02:37:22;21.20;;;9.77;;
55292;SDS011;41157;53.560;10.098;2024-01-10T02:39:49;22.57;;;8.93;;
55292;SDS011;41157;53.560;10.098;2024-01-10T02:42:18;17.00;;;9.07;;
55292;SDS011;41157;53.560;10.098;2024-01-10T02:44:45;18.73;;;9.03;;
55292;SDS011;41157;53.560;10.098;2024-01-10T02:47:12;16.20;;;8.03;;
55292;SDS011;41157;53.560;10.098;2024-01-10T02:49:39;18.67;;;8.53;;
55292;SDS011;41157;53.560;10.098;2024-01-10T02:52:06;20.80;;;8.27;;
55292;SDS011;41157;53.560;10.098;2024-01-10T02:54:33;15.27;;;8.43;;
55292;SDS011;41157;53.560;10.098;2024-01-10T02:57:00;18.33;;;8.80;;
55292;SDS011;41157;53.560;10.098;2024-01-10T02:59:28;18.20;;;8.60;;
55292;SDS011;41157;53.560;10.098;2024-01-10T03:01:55;20.80;;;9.13;;
55292;SDS011;41157;53.560;10.098;2024-01-10T03:04:22;19.30;;;9.20;;
55292;SDS011;41157;53.560;10.098;2024-01-10T03:06:49;22.13;;;9.40;;
55292;SDS011;41157;53.560;10.098;2024-01-10T03:09:16;22.37;;;9.40;;
55292;SDS011;41157;53.560;10.098;2024-01-10T03:11:43;21.63;;;10.23;;
55292;SDS011;41157;53.560;10.098;2024-01-10T03:14:10;23.80;;;9.80;;
55292;SDS011;41157;53.560;10.098;2024-01-10T03:16:39;22.97;;;10.90;;
55292;SDS011;41157;53.560;10.098;2024-01-10T03:19:06;24.33;;;10.80;;
55292;SDS011;41157;53.560;10.098;2024-01-10T03:21:33;24.00;;;10.50;;
55292;SDS011;41157;53.560;10.098;2024-01-10T03:24:00;19.97;;;9.60;;
55292;SDS011;41157;53.560;10.098;2024-01-10T03:26:27;20.93;;;9.70;;
55292;SDS011;41157;53.560;10.098;2024-01-10T03:28:55;21.37;;;9.63;;
55292;SDS011;41157;53.560;10.098;2024-01-10T03:31:22;23.47;;;10.37;;
55292;SDS011;41157;53.560;10.098;2024-01-10T03:33:51;19.40;;;9.53;;
55292;SDS011;41157;53.560;10.098;2024-01-10T03:36:18;19.33;;;9.80;;
55292;SDS011;41157;53.560;10.098;2024-01-10T03:38:45;20.37;;;10.47;;
55292;SDS011;41157;53.560;10.098;2024-01-10T03:41:12;23.40;;;10.23;;
55292;SDS011;41157;53.560;10.098;2024-01-10T03:43:39;21.17;;;10.00;;
55292;SDS011;41157;53.560;10.098;2024-01-10T03:46:06;20.60;;;10.63;;
55292;SDS011;41157;53.560;10.098;2024-01-10T03:48:33;22.83;;;10.93;;
55292;SDS011;41157;53.560;10.098;2024-01-10T03:51:02;22.60;;;11.03;;
55292;SDS011;41157;53.560;10.098;2024-01-10T03:53:29;27.77;;;10.90;;
55292;SDS011;41157;53.560;10.098;2024-01-10T03:55:56;23.53;;;10.13;;
55292;SDS011;41157;53.560;10.098;2024-01-10T03:58:23;28.90;;;11.00;;
55292;SDS011;41157;53.560;10.098;2024-01-10T04:00:51;21.70;;;10.33;;
55292;SDS011;41157;53.560;10.098;2024-01-10T04:03:18;23.37;;;11.57;;
55292;SDS011;41157;53.560;10.098;2024-01-10T04:05:45;22.97;;;10.27;;
55292;SDS011;41157;53.560;10.098;2024-01-10T04:08:13;25.80;;;10.50;;
55292;SDS011;41157;53.560;10.098;2024-01-10T04:10:40;24.40;;;9.87;;
55292;SDS011;41157;53.560;10.098;2024-01-10T04:13:07;26.03;;;11.10;;
55292;SDS011;41157;53.560;10.098;2024-01-10T04:15:34;20.40;;;9.90;;
55292;SDS011;41157;53.560;10.098;2024-01-10T04:18:01;23.43;;;10.53;;
55292;SDS011;41157;53.560;10.098;2024-01-10T04:20:28;22.83;;;10.83;;
55292;SDS011;41157;53.560;10.098;2024-01-10T04:22:55;23.83;;;10.77;;
55292;SDS011;41157;53.560;10.098;2024-01-10T04:25:23;18.37;;;9.67;;
55292;SDS011;41157;53.560;10.098;2024-01-10T04:27:50;25.77;;;11.20;;
55292;SDS011;41157;53.560;10.098;2024-01-10T04:30:17;25.37;;;11.00;;
55292;SDS011;41157;53.560;10.098;2024-01-10T04:32:44;21.23;;;10.60;;
55292;SDS011;41157;53.560;10.098;2024-01-10T04:35:11;24.73;;;11.73;;
55292;SDS011;41157;53.560;10.098;2024-01-10T04:37:39;23.33;;;10.67;;
55292;SDS011;41157;53.560;10.098;2024-01-10T04:40:06;25.40;;;11.73;;
55292;SDS011;41157;53.560;10.098;2024-01-10T04:42:35;24.07;;;10.87;;
55292;SDS011;41157;53.560;10.098;2024-01-10T04:45:02;20.97;;;11.00;;
55292;SDS011;41157;53.560;10.098;2024-01-10T04:47:29;22.57;;;10.40;;
55292;SDS011;41157;53.560;10.098;2024-01-10T04:49:56;24.73;;;11.80;;
55292;SDS011;41157;53.560;10.098;2024-01-10T04:52:23;26.47;;;10.20;;
55292;SDS011;41157;53.560;10.098;2024-01-10T04:54:50;24.17;;;11.10;;
55292;SDS011;41157;53.560;10.098;2024-01-10T04:57:17;21.30;;;10.37;;
55292;SDS011;41157;53.560;10.098;2024-01-10T04:59:45;23.03;;;11.57;;
55292;SDS011;41157;53.560;10.098;2024-01-10T05:02:12;24.00;;;10.40;;
55292;SDS011;41157;53.560;10.098;2024-01-10T05:04:40;21.23;;;10.47;;
55292;SDS011;41157;53.560;10.098;2024-01-10T05:07:07;19.30;;;9.93;;
55292;SDS011;41157;53.560;10.098;2024-01-10T05:09:34;20.37;;;9.93;;
55292;SDS011;41157;53.560;10.098;2024-01-10T05:12:01;20.23;;;10.70;;
55292;SDS011;41157;53.560;10.098;2024-01-10T05:14:28;17.80;;;9.70;;
55292;SDS011;41157;53.560;10.098;2024-01-10T05:16:56;23.73;;;9.23;;
55292;SDS011;41157;53.560;10.098;2024-01-10T05:19:23;18.40;;;9.37;;
55292;SDS011;41157;53.560;10.098;2024-01-10T05:21:53;15.20;;;8.33;;
55292;SDS011;41157;53.560;10.098;2024-01-10T05:24:20;21.50;;;8.77;;
55292;SDS011;41157;53.560;10.098;2024-01-10T05:26:47;14.00;;;8.23;;
55292;SDS011;41157;53.560;10.098;2024-01-10T05:29:16;16.07;;;7.43;;
55292;SDS011;41157;53.560;10.098;2024-01-10T05:31:44;17.27;;;8.10;;
55292;SDS011;41157;53.560;10.098;2024-01-10T05:34:13;15.97;;;7.73;;
55292;SDS011;41157;53.560;10.098;2024-01-10T05:36:40;19.43;;;8.20;;
55292;SDS011;41157;53.560;10.098;2024-01-10T05:39:07;15.03;;;8.30;;
55292;SDS011;41157;53.560;10.098;2024-01-10T05:41:34;16.77;;;7.30;;
55292;SDS011;41157;53.560;10.098;2024-01-10T05:44:01;13.57;;;7.87;;
55292;SDS011;41157;53.560;10.098;2024-01-10T05:46:29;15.67;;;7.77;;
55292;SDS011;41157;53.560;10.098;2024-01-10T05:48:57;14.13;;;7.80;;
55292;SDS011;41157;53.560;10.098;2024-01-10T05:51:25;15.43;;;7.30;;
55292;SDS011;41157;53.560;10.098;2024-01-10T05:53:52;16.37;;;6.77;;
55292;SDS011;41157;53.560;10.098;2024-01-10T05:56:19;13.23;;;6.63;;
55292;SDS011;41157;53.560;10.098;2024-01-10T05:58:46;10.47;;;5.93;;
55292;SDS011;41157;53.560;10.098;2024-01-10T06:01:13;12.00;;;6.23;;
55292;SDS011;41157;53.560;10.098;2024-01-10T06:03:40;12.57;;;6.37;;
55292;SDS011;41157;53.560;10.098;2024-01-10T06:06:07;10.30;;;6.73;;
55292;SDS011;41157;53.560;10.098;2024-01-10T06:08:35;12.20;;;5.93;;
55292;SDS011;41157;53.560;10.098;2024-01-10T06:11:03;12.93;;;6.20;;
55292;SDS011;41157;53.560;10.098;2024-01-10T06:13:34;11.60;;;6.47;;
55292;SDS011;41157;53.560;10.098;2024-01-10T06:16:02;12.63;;;6.00;;
55292;SDS011;41157;53.560;10.098;2024-01-10T06:18:29;12.80;;;6.73;;
55292;SDS011;41157;53.560;10.098;2024-01-10T06:20:56;11.83;;;6.50;;
55292;SDS011;41157;53.560;10.098;2024-01-10T06:23:23;8.20;;;5.70;;
55292;SDS011;41157;53.560;10.098;2024-01-10T06:25:51;10.63;;;6.07;;
55292;SDS011;41157;53.560;10.098;2024-01-10T06:28:19;13.03;;;7.10;;
55292;SDS011;41157;53.560;10.098;2024-01-10T06:30:46;13.00;;;5.97;;
55292;SDS011;41157;53.560;10.098;2024-01-10T06:33:13;11.60;;;5.97;;
55292;SDS011;41157;53.560;10.098;2024-01-10T06:35:40;10.53;;;5.90;;
55292;SDS011;41157;53.560;10.098;2024-01-10T06:38:08;11.80;;;6.10;;
55292;SDS011;41157;53.560;10.098;2024-01-10T06:40:35;12.40;;;6.60;;
55292;SDS011;41157;53.560;10.098;2024-01-10T06:43:04;14.07;;;6.70;;
55292;SDS011;41157;53.560;10.098;2024-01-10T06:45:33;12.20;;;6.83;;
55292;SDS011;41157;53.560;10.098;2024-01-10T06:48:00;12.37;;;6.20;;
55292;SDS011;41157;53.560;10.098;2024-01-10T06:50:28;11.00;;;6.43;;
55292;SDS011;41157;53.560;10.098;2024-01-10T06:52:55;13.40;;;6.83;;
55292;SDS011;41157;53.560;10.098;2024-01-10T06:55:22;11.67;;;6.17;;
55292;SDS011;41157;53.560;10.098;2024-01-10T06:57:50;10.87;;;6.47;;
55292;SDS011;41157;53.560;10.098;2024-01-10T07:00:19;12.97;;;6.27;;
55292;SDS011;41157;53.560;10.098;2024-01-10T07:02:46;12.57;;;6.30;;
55292;SDS011;41157;53.560;10.098;2024-01-10T07:05:13;11.43;;;6.33;;
55292;SDS011;41157;53.560;10.098;2024-01-10T07:07:41;11.50;;;6.77;;
55292;SDS011;41157;53.560;10.098;2024-01-10T07:10:08;10.67;;;5.57;;
55292;SDS011;41157;53.560;10.098;2024-01-10T07:12:36;10.03;;;6.00;;
55292;SDS011;41157;53.560;10.098;2024-01-10T07:15:04;10.30;;;6.33;;
55292;SDS011;41157;53.560;10.098;2024-01-10T07:17:32;10.00;;;6.27;;
55292;SDS011;41157;53.560;10.098;2024-01-10T07:19:59;10.27;;;5.87;;
55292;SDS011;41157;53.560;10.098;2024-01-10T07:22:27;12.00;;;6.70;;
55292;SDS011;41157;53.560;10.098;2024-01-10T07:24:54;12.27;;;6.90;;
55292;SDS011;41157;53.560;10.098;2024-01-10T07:27:22;11.27;;;6.50;;
55292;SDS011;41157;53.560;10.098;2024-01-10T07:29:49;9.40;;;6.50;;
55292;SDS011;41157;53.560;10.098;2024-01-10T07:32:17;10.93;;;6.30;;
55292;SDS011;41157;53.560;10.098;2024-01-10T07:34:46;11.13;;;6.43;;
55292;SDS011;41157;53.560;10.098;2024-01-10T07:37:13;12.43;;;6.70;;
55292;SDS011;41157;53.560;10.098;2024-01-10T07:39:41;12.57;;;6.90;;
55292;SDS011;41157;53.560;10.098;2024-01-10T07:42:09;10.17;;;6.27;;
55292;SDS011;41157;53.560;10.098;2024-01-10T07:44:36;10.23;;;6.03;;
55292;SDS011;41157;53.560;10.098;2024-01-10T07:47:03;12.37;;;5.90;;
55292;SDS011;41157;53.560;10.098;2024-01-10T07:49:32;13.07;;;7.17;;
55292;SDS011;41157;53.560;10.098;2024-01-10T07:52:02;12.63;;;6.80;;
55292;SDS011;41157;53.560;10.098;2024-01-10T07:54:29;14.47;;;7.17;;
55292;SDS011;41157;53.560;10.098;2024-01-10T07:56:57;13.40;;;6.90;;
55292;SDS011;41157;53.560;10.098;2024-01-10T07:59:25;13.47;;;7.23;;
55292;SDS011;41157;53.560;10.098;2024-01-10T08:01:55;16.43;;;7.40;;
55292;SDS011;41157;53.560;10.098;2024-01-10T08:04:23;15.23;;;7.13;;
55292;SDS011;41157;53.560;10.098;2024-01-10T08:06:51;10.47;;;6.40;;
55292;SDS011;41157;53.560;10.098;2024-01-10T08:09:20;18.47;;;8.03;;
55292;SDS011;41157;53.560;10.098;2024-01-10T08:11:48;13.67;;;7.30;;
55292;SDS011;41157;53.560;10.098;2024-01-10T08:14:16;14.30;;;7.73;;
55292;SDS011;41157;53.560;10.098;2024-01-10T08:16:43;14.03;;;7.57;;
55292;SDS011;41157;53.560;10.098;2024-01-10T08:19:10;17.50;;;8.47;;
55292;SDS011;41157;53.560;10.098;2024-01-10T08:21:37;14.97;;;8.10;;
55292;SDS011;41157;53.560;10.098;2024-01-10T08:24:05;16.63;;;8.40;;
55292;SDS011;41157;53.560;10.098;2024-01-10T08:26:33;15.57;;;8.33;;
55292;SDS011;41157;53.560;10.098;2024-01-10T08:29:02;15.23;;;7.63;;
55292;SDS011;41157;53.560;10.098;2024-01-10T08:31:29;21.93;;;7.73;;
55292;SDS011;41157;53.560;10.098;2024-01-10T08:33:56;15.03;;;7.57;;
55292;SDS011;41157;53.560;10.098;2024-01-10T08:36:24;14.73;;;7.37;;
55292;SDS011;41157;53.560;10.098;2024-01-10T08:38:51;12.80;;;7.57;;
55292;SDS011;41157;53.560;10.098;2024-01-10T08:41:18;13.57;;;7.63;;
55292;SDS011;41157;53.560;10.098;2024-01-10T08:43:46;11.30;;;6.73;;
55292;SDS011;41157;53.560;10.098;2024-01-10T08:46:13;12.30;;;6.23;;
55292;SDS011;41157;53.560;10.098;2024-01-10T08:48:40;14.07;;;6.17;;
55292;SDS011;41157;53.560;10.098;2024-01-10T08:51:07;10.83;;;6.00;;
55292;SDS011;41157;53.560;10.098;2024-01-10T08:53:35;13.57;;;6.80;;
55292;SDS011;41157;53.560;10.098;2024-01-10T08:56:04;11.40;;;6.50;;
55292;SDS011;41157;53.560;10.098;2024-01-10T08:58:31;12.07;;;6.57;;
55292;SDS011;41157;53.560;10.098;2024-01-10T09:00:59;11.90;;;6.67;;
55292;SDS011;41157;53.560;10.098;2024-01-10T09:03:26;12.17;;;6.80;;
55292;SDS011;41157;53.560;10.098;2024-01-10T09:05:53;11.97;;;6.50;;
55292;SDS011;41157;53.560;10.098;2024-01-10T09:08:20;12.03;;;5.97;;
55292;SDS011;41157;53.560;10.098;2024-01-10T09:10:47;11.70;;;6.27;;
55292;SDS011;41157;53.560;10.098;2024-01-10T09:13:14;10.63;;;6.13;;
55292;SDS011;41157;53.560;10.098;2024-01-10T09:15:42;12.30;;;6.80;;
55292;SDS011;41157;53.560;10.098;2024-01-10T09:18:10;14.07;;;7.43;;
55292;SDS011;41157;53.560;10.098;2024-01-10T09:20:37;13.60;;;7.07;;
55292;SDS011;41157;53.560;10.098;2024-01-10T09:23:05;13.53;;;7.20;;
55292;SDS011;41157;53.560;10.098;2024-01-10T09:25:32;17.33;;;9.00;;
55292;SDS011;41157;53.560;10.098;2024-01-10T09:27:59;18.93;;;9.13;;
55292;SDS011;41157;53.560;10.098;2024-01-10T09:30:26;17.67;;;8.37;;
55292;SDS011;41157;53.560;10.098;2024-01-10T09:32:53;13.37;;;7.80;;
55292;SDS011;41157;53.560;10.098;2024-01-10T09:35:22;15.33;;;7.87;;
55292;SDS011;41157;53.560;10.098;2024-01-10T09:37:50;15.63;;;7.43;;
55292;SDS011;41157;53.560;10.098;2024-01-10T09:40:18;16.40;;;7.83;;
55292;SDS011;41157;53.560;10.098;2024-01-10T09:42:46;14.87;;;7.73;;
55292;SDS011;41157;53.560;10.098;2024-01-10T09:45:13;14.00;;;7.93;;
55292;SDS011;41157;53.560;10.098;2024-01-10T09:47:42;14.13;;;7.10;;
55292;SDS011;41157;53.560;10.098;2024-01-10T09:50:09;14.80;;;7.73;;
55292;SDS011;41157;53.560;10.098;2024-01-10T09:52:41;15.30;;;7.97;;
55292;SDS011;41157;53.560;10.098;2024-01-10T09:55:08;13.73;;;7.73;;
55292;SDS011;41157;53.560;10.098;2024-01-10T09:57:36;14.60;;;7.97;;
55292;SDS011;41157;53.560;10.098;2024-01-10T10:00:04;14.53;;;8.00;;
55292;SDS011;41157;53.560;10.098;2024-01-10T10:02:35;17.77;;;8.77;;
55292;SDS011;41157;53.560;10.098;2024-01-10T10:05:08;15.70;;;8.43;;
55292;SDS011;41157;53.560;10.098;2024-01-10T10:07:44;15.73;;;8.23;;
55292;SDS011;41157;53.560;10.098;2024-01-10T10:10:11;16.63;;;7.23;;
55292;SDS011;41157;53.560;10.098;2024-01-10T10:12:43;10.77;;;6.10;;
55292;SDS011;41157;53.560;10.098;2024-01-10T10:15:11;11.20;;;6.70;;
55292;SDS011;41157;53.560;10.098;2024-01-10T10:17:38;13.10;;;7.00;;
55292;SDS011;41157;53.560;10.098;2024-01-10T10:20:11;14.43;;;7.90;;
55292;SDS011;41157;53.560;10.098;2024-01-10T10:22:38;16.83;;;7.40;;
55292;SDS011;41157;53.560;10.098;2024-01-10T10:25:08;14.47;;;7.53;;
55292;SDS011;41157;53.560;10.098;2024-01-10T10:27:36;15.07;;;7.90;;
55292;SDS011;41157;53.560;10.098;2024-01-10T10:30:04;12.37;;;6.87;;
55292;SDS011;41157;53.560;10.098;2024-01-10T10:32:34;18.03;;;7.93;;
55292;SDS011;41157;53.560;10.098;2024-01-10T10:35:01;13.27;;;7.03;;
55292;SDS011;41157;53.560;10.098;2024-01-10T10:37:28;12.03;;;6.80;;
55292;SDS011;41157;53.560;10.098;2024-01-10T10:39:55;14.57;;;7.60;;
55292;SDS011;41157;53.560;10.098;2024-01-10T10:42:23;15.10;;;8.30;;
55292;SDS011;41157;53.560;10.098;2024-01-10T10:44:51;15.20;;;7.53;;
55292;SDS011;41157;53.560;10.098;2024-01-10T10:47:20;15.53;;;8.40;;
55292;SDS011;41157;53.560;10.098;2024-01-10T10:49:51;14.20;;;7.60;;
55292;SDS011;41157;53.560;10.098;2024-01-10T10:52:20;14.27;;;7.30;;
55292;SDS011;41157;53.560;10.098;2024-01-10T10:54:48;14.13;;;7.43;;
55292;SDS011;41157;53.560;10.098;2024-01-10T10:57:16;16.00;;;7.43;;
55292;SDS011;41157;53.560;10.098;2024-01-10T10:59:46;11.90;;;6.77;;
55292;SDS011;41157;53.560;10.098;2024-01-10T11:02:13;12.90;;;6.57;;
55292;SDS011;41157;53.560;10.098;2024-01-10T11:04:44;9.23;;;6.37;;
55292;SDS011;41157;53.560;10.098;2024-01-10T11:07:11;12.27;;;6.07;;
55292;SDS011;41157;53.560;10.098;2024-01-10T11:09:38;9.87;;;6.40;;
55292;SDS011;41157;53.560;10.098;2024-01-10T11:12:10;9.57;;;5.90;;
55292;SDS011;41157;53.560;10.098;2024-01-10T11:14:43;10.50;;;6.40;;
55292;SDS011;41157;53.560;10.098;2024-01-10T11:17:23;17.67;;;7.20;;
55292;SDS011;41157;53.560;10.098;2024-01-10T11:19:58;12.40;;;7.80;;
55292;SDS011;41157;53.560;10.098;2024-01-10T11:22:40;13.63;;;7.13;;
55292;SDS011;41157;53.560;10.098;2024-01-10T11:25:10;14.20;;;8.17;;
55292;SDS011;41157;53.560;10.098;2024-01-10T11:27:39;14.27;;;6.43;;
55292;SDS011;41157;53.560;10.098;2024-01-10T11:30:06;12.77;;;6.60;;
55292;SDS011;41157;53.560;10.098;2024-01-10T11:32:35;11.37;;;6.30;;
55292;SDS011;41157;53.560;10.098;2024-01-10T11:35:04;10.57;;;6.37;;
55292;SDS011;41157;53.560;10.098;2024-01-10T11:37:39;13.23;;;6.93;;
55292;SDS011;41157;53.560;10.098;2024-01-10T11:40:07;11.73;;;6.70;;
55292;SDS011;41157;53.560;10.098;2024-01-10T11:42:40;11.30;;;6.10;;
55292;SDS011;41157;53.560;10.098;2024-01-10T11:45:07;8.97;;;5.43;;
55292;SDS011;41157;53.560;10.098;2024-01-10T11:47:38;9.07;;;5.20;;
55292;SDS011;41157;53.560;10.098;2024-01-10T11:50:06;10.30;;;5.80;;
55292;SDS011;41157;53.560;10.098;2024-01-10T11:52:36;9.17;;;5.10;;
55292;SDS011;41157;53.560;10.098;2024-01-10T11:55:03;10.13;;;4.77;;
55292;SDS011;41157;53.560;10.098;2024-01-10T11:57:32;8.10;;;5.47;;
55292;SDS011;41157;53.560;10.098;2024-01-10T11:59:59;9.93;;;5.00;;
55292;SDS011;41157;53.560;10.098;2024-01-10T12:02:27;8.63;;;4.60;;
55292;SDS011;41157;53.560;10.098;2024-01-10T12:04:55;7.47;;;4.40;;
55292;SDS011;41157;53.560;10.098;2024-01-10T12:07:22;7.13;;;3.97;;
55292;SDS011;41157;53.560;10.098;2024-01-10T12:09:50;5.90;;;4.20;;
55292;SDS011;41157;53.560;10.098;2024-01-10T12:12:17;5.77;;;3.60;;
55292;SDS011;41157;53.560;10.098;2024-01-10T12:14:44;7.03;;;3.73;;
55292;SDS011;41157;53.560;10.098;2024-01-10T12:17:11;7.03;;;4.20;;
55292;SDS011;41157;53.560;10.098;2024-01-10T12:19:38;10.03;;;4.60;;
55292;SDS011;41157;53.560;10.098;2024-01-10T12:22:09;8.13;;;4.33;;
55292;SDS011;41157;53.560;10.098;2024-01-10T12:24:38;5.43;;;3.83;;
55292;SDS011;41157;53.560;10.098;2024-01-10T12:27:05;7.10;;;4.03;;
55292;SDS011;41157;53.560;10.098;2024-01-10T12:29:32;6.23;;;3.97;;
55292;SDS011;41157;53.560;10.098;2024-01-10T12:31:59;5.80;;;3.93;;
55292;SDS011;41157;53.560;10.098;2024-01-10T12:34:27;7.13;;;4.10;;
55292;SDS011;41157;53.560;10.098;2024-01-10T12:36:54;7.73;;;3.93;;
55292;SDS011;41157;53.560;10.098;2024-01-10T12:39:23;7.73;;;4.30;;
55292;SDS011;41157;53.560;10.098;2024-01-10T12:41:50;7.47;;;4.10;;
55292;SDS011;41157;53.560;10.098;2024-01-10T12:44:17;6.10;;;3.90;;
55292;SDS011;41157;53.560;10.098;2024-01-10T12:46:51;7.10;;;4.33;;
55292;SDS011;41157;53.560;10.098;2024-01-10T12:49:18;8.77;;;4.57;;
55292;SDS011;41157;53.560;10.098;2024-01-10T12:51:46;8.10;;;5.13;;
55292;SDS011;41157;53.560;10.098;2024-01-10T12:54:13;7.90;;;4.67;;
55292;SDS011;41157;53.560;10.098;2024-01-10T12:56:42;7.47;;;4.60;;
55292;SDS011;41157;53.560;10.098;2024-01-10T12:59:10;7.77;;;5.03;;
55292;SDS011;41157;53.560;10.098;2024-01-10T13:01:38;9.73;;;5.13;;
55292;SDS011;41157;53.560;10.098;2024-01-10T13:04:09;8.17;;;5.03;;
55292;SDS011;41157;53.560;10.098;2024-01-10T13:06:40;10.80;;;5.57;;
55292;SDS011;41157;53.560;10.098;2024-01-10T13:09:07;7.63;;;4.30;;
55292;SDS011;41157;53.560;10.098;2024-01-10T13:11:34;8.33;;;4.23;;
55292;SDS011;41157;53.560;10.098;2024-01-10T13:14:02;8.83;;;4.83;;
55292;SDS011;41157;53.560;10.098;2024-01-10T13:16:29;8.50;;;4.40;;
55292;SDS011;41157;53.560;10.098;2024-01-10T13:18:56;6.43;;;4.37;;
55292;SDS011;41157;53.560;10.098;2024-01-10T13:21:24;7.83;;;4.83;;
55292;SDS011;41157;53.560;10.098;2024-01-10T13:23:51;7.67;;;4.83;;
55292;SDS011;41157;53.560;10.098;2024-01-10T13:26:18;7.63;;;4.63;;
55292;SDS011;41157;53.560;10.098;2024-01-10T13:28:45;7.47;;;4.47;;
55292;SDS011;41157;53.560;10.098;2024-01-10T13:31:14;8.00;;;4.67;;
55292;SDS011;41157;53.560;10.098;2024-01-10T13:33:41;6.03;;;3.73;;
55292;SDS011;41157;53.560;10.098;2024-01-10T13:36:08;7.13;;;4.37;;
55292;SDS011;41157;53.560;10.098;2024-01-10T13:38:35;8.03;;;4.67;;
55292;SDS011;41157;53.560;10.098;2024-01-10T13:41:02;8.30;;;4.97;;
55292;SDS011;41157;53.560;10.098;2024-01-10T13:43:30;9.73;;;5.43;;
55292;SDS011;41157;53.560;10.098;2024-01-10T13:45:57;7.93;;;5.07;;
55292;SDS011;41157;53.560;10.098;2024-01-10T13:48:27;7.10;;;4.50;;
55292;SDS011;41157;53.560;10.098;2024-01-10T13:50:54;8.40;;;4.87;;
55292;SDS011;41157;53.560;10.098;2024-01-10T13:53:21;8.50;;;4.83;;
55292;SDS011;41157;53.560;10.098;2024-01-10T13:55:48;8.73;;;4.77;;
55292;SDS011;41157;53.560;10.098;2024-01-10T13:58:15;7.63;;;5.17;;
55292;SDS011;41157;53.560;10.098;2024-01-10T14:00:43;8.73;;;4.97;;
55292;SDS011;41157;53.560;10.098;2024-01-10T14:03:11;8.73;;;5.10;;
55292;SDS011;41157;53.560;10.098;2024-01-10T14:05:40;7.40;;;5.10;;
55292;SDS011;41157;53.560;10.098;2024-01-10T14:08:07;7.90;;;4.87;;
55292;SDS011;41157;53.560;10.098;2024-01-10T14:10:35;7.93;;;5.30;;
55292;SDS011;41157;53.560;10.098;2024-01-10T14:13:03;8.57;;;5.53;;
55292;SDS011;41157;53.560;10.098;2024-01-10T14:15:31;8.30;;;5.13;;
55292;SDS011;41157;53.560;10.098;2024-01-10T14:17:58;6.80;;;4.67;;
55292;SDS011;41157;53.560;10.098;2024-01-10T14:20:26;10.00;;;5.50;;
55292;SDS011;41157;53.560;10.098;2024-01-10T14:22:54;12.23;;;6.27;;
55292;SDS011;41157;53.560;10.098;2024-01-10T14:25:21;10.17;;;5.73;;